createdAt,value
2022-09-30T00:01:15.837Z,6.10
2022-09-30T00:03:43.676Z,6.10
2022-09-30T00:06:11.265Z,6.10
2022-09-30T00:08:38.783Z,6.10
2022-09-30T00:11:16.366Z,6.10
2022-09-30T00:13:45.087Z,6.10
2022-09-30T00:16:14.009Z,6.10
2022-09-30T00:18:42.509Z,6.00
2022-09-30T00:21:11.232Z,6.00
2022-09-30T00:23:39.194Z,6.00
2022-09-30T00:26:10.260Z,6.00
2022-09-30T00:28:37.177Z,5.90
2022-09-30T00:31:07.954Z,5.90
2022-09-30T00:33:36.487Z,5.90
2022-09-30T00:36:05.074Z,5.80
2022-09-30T00:38:32.520Z,5.80
2022-09-30T00:41:03.327Z,5.80
2022-09-30T00:43:46.697Z,5.80
2022-09-30T00:46:29.008Z,5.80
2022-09-30T00:48:58.464Z,5.80
2022-09-30T00:51:41.088Z,5.70
2022-09-30T00:54:13.650Z,5.70
2022-09-30T00:56:46.746Z,5.70
2022-09-30T00:59:38.213Z,5.70
2022-09-30T01:02:06.339Z,5.60
2022-09-30T01:04:35.458Z,5.60
2022-09-30T01:07:05.380Z,5.60
2022-09-30T01:09:35.700Z,5.60
2022-09-30T01:12:09.366Z,5.60
2022-09-30T01:14:37.700Z,5.60
2022-09-30T01:17:07.794Z,5.60
2022-09-30T01:20:04.649Z,5.50
2022-09-30T01:23:04.592Z,5.60
2022-09-30T01:25:43.474Z,5.50
2022-09-30T01:28:53.679Z,5.50
2022-09-30T01:31:49.683Z,5.50
2022-09-30T01:34:36.354Z,5.50
2022-09-30T01:37:47.748Z,5.50
2022-09-30T01:40:23.972Z,5.50
2022-09-30T01:43:00.944Z,5.50
2022-09-30T01:45:36.144Z,5.40
2022-09-30T01:48:32.927Z,5.40
2022-09-30T01:51:13.985Z,5.40
2022-09-30T01:53:50.480Z,5.40
2022-09-30T01:56:53.329Z,5.30
2022-09-30T01:59:29.203Z,5.30
2022-09-30T02:02:02.448Z,5.30
2022-09-30T02:04:41.874Z,5.30
2022-09-30T02:07:41.519Z,5.30
2022-09-30T02:10:16.989Z,5.30
2022-09-30T02:12:56.148Z,5.30
2022-09-30T02:15:26.796Z,5.30
2022-09-30T02:18:06.574Z,5.20
2022-09-30T02:20:38.951Z,5.20
2022-09-30T02:23:13.049Z,5.20
2022-09-30T02:25:51.762Z,5.20
2022-09-30T02:28:27.049Z,5.20
2022-09-30T02:30:57.978Z,5.20
2022-09-30T02:33:35.196Z,5.20
2022-09-30T02:36:16.638Z,5.10
2022-09-30T02:38:49.178Z,5.10
2022-09-30T02:41:23.333Z,5.10
2022-09-30T02:43:52.445Z,5.10
2022-09-30T02:46:42.264Z,5.00
2022-09-30T02:49:24.536Z,5.00
2022-09-30T02:52:23.099Z,5.00
2022-09-30T02:55:27.003Z,5.00
2022-09-30T02:58:14.091Z,4.90
2022-09-30T03:00:42.273Z,4.90
2022-09-30T03:03:18.500Z,4.90
2022-09-30T03:05:45.459Z,4.90
2022-09-30T03:08:13.551Z,4.90
2022-09-30T03:10:40.756Z,4.80
2022-09-30T03:13:26.232Z,4.80
2022-09-30T03:16:05.109Z,4.80
2022-09-30T03:19:04.037Z,4.80
2022-09-30T03:21:59.888Z,4.90
2022-09-30T03:24:41.646Z,4.90
2022-09-30T03:27:36.270Z,4.90
2022-09-30T03:30:09.040Z,4.80
2022-09-30T03:33:10.400Z,4.80
2022-09-30T03:36:15.294Z,4.90
2022-09-30T03:38:57.855Z,4.90
2022-09-30T03:41:46.333Z,4.90
2022-09-30T03:44:41.207Z,4.90
2022-09-30T03:47:14.674Z,4.90
2022-09-30T03:52:39.735Z,4.90
2022-09-30T03:55:11.782Z,4.90
2022-09-30T03:57:39.304Z,4.90
2022-09-30T04:00:07.595Z,4.90
2022-09-30T04:02:36.761Z,4.90
2022-09-30T04:05:05.574Z,4.90
2022-09-30T04:07:33.122Z,4.90
2022-09-30T04:10:00.490Z,4.90
2022-09-30T04:12:28.472Z,4.90
2022-09-30T04:14:55.247Z,4.90
2022-09-30T04:17:22.484Z,4.90
2022-09-30T04:19:49.871Z,4.90
2022-09-30T04:22:16.802Z,4.90
2022-09-30T04:24:43.974Z,4.90
2022-09-30T04:27:11.124Z,4.90
2022-09-30T04:29:38.184Z,4.80
2022-09-30T04:32:05.050Z,4.90
2022-09-30T04:34:31.894Z,4.80
2022-09-30T04:36:58.658Z,4.80
2022-09-30T04:39:25.430Z,4.90
2022-09-30T04:41:54.027Z,4.90
2022-09-30T04:44:21.584Z,4.90
2022-09-30T04:46:48.764Z,4.90
2022-09-30T04:49:15.588Z,4.90
2022-09-30T04:51:46.095Z,4.90
2022-09-30T04:54:13.462Z,4.80
2022-09-30T04:56:40.248Z,4.80
2022-09-30T04:59:07.160Z,4.80
2022-09-30T05:01:34.391Z,4.80
2022-09-30T05:04:01.955Z,4.80
2022-09-30T05:06:29.061Z,4.70
2022-09-30T05:08:55.925Z,4.60
2022-09-30T05:11:23.042Z,4.60
2022-09-30T05:13:51.183Z,4.60
2022-09-30T05:16:18.944Z,4.60
2022-09-30T05:18:46.448Z,4.60
2022-09-30T05:21:20.579Z,4.70
2022-09-30T05:23:47.632Z,4.70
2022-09-30T05:26:15.116Z,4.70
2022-09-30T05:28:42.657Z,4.70
2022-09-30T05:31:10.040Z,4.80
2022-09-30T05:33:37.040Z,4.80
2022-09-30T05:36:06.409Z,4.80
2022-09-30T05:38:33.893Z,4.90
2022-09-30T05:41:07.652Z,4.90
2022-09-30T05:43:34.931Z,5.00
2022-09-30T05:46:01.900Z,5.10
2022-09-30T05:48:28.856Z,5.10
2022-09-30T05:50:57.637Z,5.10
2022-09-30T05:53:25.062Z,5.20
2022-09-30T05:55:52.375Z,5.20
2022-09-30T05:58:19.679Z,5.30
2022-09-30T06:00:48.101Z,5.30
2022-09-30T06:03:15.966Z,5.40
2022-09-30T06:05:44.691Z,5.50
2022-09-30T06:08:13.758Z,5.60
2022-09-30T06:10:43.112Z,5.70
2022-09-30T06:13:10.425Z,5.80
2022-09-30T06:15:41.371Z,5.90
2022-09-30T06:18:09.943Z,6.00
2022-09-30T06:20:37.545Z,6.10
2022-09-30T06:23:05.007Z,6.20
2022-09-30T06:25:32.300Z,6.30
2022-09-30T06:27:59.363Z,6.40
2022-09-30T06:30:27.383Z,6.50
2022-09-30T06:32:58.726Z,6.70
2022-09-30T06:35:26.467Z,6.90
2022-09-30T06:37:53.679Z,7.20
2022-09-30T06:40:21.297Z,7.40
2022-09-30T06:42:49.399Z,7.70
2022-09-30T06:45:29.509Z,8.00
2022-09-30T06:48:04.650Z,8.30
2022-09-30T06:50:32.728Z,8.60
2022-09-30T06:53:01.721Z,8.80
2022-09-30T06:55:30.376Z,9.10
2022-09-30T06:57:57.785Z,9.30
2022-09-30T07:00:26.257Z,9.50
2022-09-30T07:02:55.329Z,9.70
2022-09-30T07:05:22.469Z,9.80
2022-09-30T07:07:49.347Z,10.00
2022-09-30T07:10:16.445Z,10.20
2022-09-30T07:12:43.345Z,10.40
2022-09-30T07:15:13.697Z,10.50
2022-09-30T07:17:40.939Z,10.70
2022-09-30T07:20:08.374Z,11.00
2022-09-30T07:22:35.892Z,11.10
2022-09-30T07:25:04.613Z,11.30
2022-09-30T07:27:33.937Z,11.50
2022-09-30T07:30:11.489Z,11.60
2022-09-30T07:32:41.573Z,11.80
2022-09-30T07:35:08.661Z,12.00
2022-09-30T07:37:36.423Z,12.10
2022-09-30T07:40:06.995Z,12.20
2022-09-30T07:42:37.697Z,12.40
2022-09-30T07:45:06.263Z,12.40
2022-09-30T07:47:33.287Z,12.50
2022-09-30T07:50:00.543Z,12.50
2022-09-30T07:52:27.618Z,12.70
2022-09-30T07:54:55.806Z,12.70
2022-09-30T07:57:22.963Z,12.70
2022-09-30T07:59:49.964Z,12.80
2022-09-30T08:02:18.789Z,12.90
2022-09-30T08:04:45.961Z,12.80
2022-09-30T08:07:14.969Z,12.90
2022-09-30T08:09:42.302Z,12.90
2022-09-30T08:12:09.796Z,13.00
2022-09-30T08:14:36.637Z,13.00
2022-09-30T08:17:03.419Z,13.00
2022-09-30T08:19:31.573Z,13.00
2022-09-30T08:21:59.043Z,13.00
2022-09-30T08:24:27.146Z,13.00
2022-09-30T08:26:55.517Z,13.00
2022-09-30T08:32:09.856Z,13.10
2022-09-30T08:34:36.858Z,13.10
2022-09-30T08:37:08.636Z,13.20
2022-09-30T08:39:36.737Z,13.20
2022-09-30T08:42:36.010Z,13.20
2022-09-30T08:45:33.541Z,13.30
2022-09-30T08:48:23.382Z,13.40
2022-09-30T08:51:06.124Z,13.50
2022-09-30T08:53:41.125Z,13.60
2022-09-30T08:56:08.881Z,13.60
2022-09-30T08:58:43.864Z,13.70
2022-09-30T09:01:31.005Z,13.70
2022-09-30T09:04:00.460Z,13.70
2022-09-30T09:07:00.633Z,13.70
2022-09-30T09:09:34.594Z,13.80
2022-09-30T09:12:22.642Z,13.80
2022-09-30T09:15:04.943Z,13.90
2022-09-30T09:18:10.942Z,14.00
2022-09-30T09:20:42.984Z,14.10
2022-09-30T09:23:13.928Z,14.20
2022-09-30T09:25:41.037Z,14.30
2022-09-30T09:28:27.945Z,14.40
2022-09-30T09:30:58.878Z,14.50
2022-09-30T09:33:39.703Z,14.60
2022-09-30T09:36:23.049Z,14.70
2022-09-30T09:38:56.103Z,14.90
2022-09-30T09:41:39.212Z,15.00
2022-09-30T09:44:50.322Z,15.10
2022-09-30T09:47:17.462Z,15.30
2022-09-30T09:49:57.944Z,15.50
2022-09-30T09:52:27.713Z,15.60
2022-09-30T09:54:56.831Z,15.70
2022-09-30T09:57:32.394Z,15.80
2022-09-30T10:00:29.694Z,15.80
2022-09-30T10:03:00.655Z,15.80
2022-09-30T10:05:29.939Z,15.90
2022-09-30T10:08:23.250Z,15.90
2022-09-30T10:10:56.077Z,16.00
2022-09-30T10:13:26.296Z,16.00
2022-09-30T10:15:56.315Z,16.10
2022-09-30T10:18:30.083Z,16.10
2022-09-30T10:21:00.731Z,16.10
2022-09-30T10:23:27.836Z,16.20
2022-09-30T10:25:55.763Z,16.20
2022-09-30T10:28:26.875Z,16.30
2022-09-30T10:31:22.085Z,16.20
2022-09-30T10:34:10.089Z,16.20
2022-09-30T10:36:40.711Z,16.20
2022-09-30T10:39:31.652Z,16.20
2022-09-30T10:42:08.649Z,16.10
2022-09-30T10:44:44.359Z,15.90
2022-09-30T10:47:16.425Z,15.80
2022-09-30T10:49:47.202Z,15.70
2022-09-30T10:52:22.394Z,15.60
2022-09-30T10:54:57.301Z,15.50
2022-09-30T10:57:35.221Z,15.40
2022-09-30T11:00:14.543Z,15.40
2022-09-30T11:03:07.967Z,15.40
2022-09-30T11:05:39.448Z,15.40
2022-09-30T11:08:21.873Z,15.30
2022-09-30T11:11:05.823Z,15.30
2022-09-30T11:14:11.252Z,15.30
2022-09-30T11:16:47.178Z,15.20
2022-09-30T11:19:41.289Z,15.20
2022-09-30T11:22:33.802Z,15.10
2022-09-30T11:25:01.077Z,15.10
2022-09-30T11:27:30.582Z,15.00
2022-09-30T11:30:03.584Z,15.00
2022-09-30T11:32:39.422Z,14.90
2022-09-30T11:35:25.432Z,14.90
2022-09-30T11:38:07.199Z,14.90
2022-09-30T11:41:01.866Z,14.90
2022-09-30T11:43:47.459Z,15.00
2022-09-30T11:46:32.771Z,15.00
2022-09-30T11:49:05.666Z,15.00
2022-09-30T11:51:40.075Z,15.00
2022-09-30T11:54:59.619Z,15.10
2022-09-30T11:57:43.299Z,15.10
2022-09-30T12:00:12.597Z,15.10
2022-09-30T12:02:50.712Z,15.20
2022-09-30T12:05:41.814Z,15.10
2022-09-30T12:08:24.321Z,15.20
2022-09-30T12:11:10.086Z,15.20
2022-09-30T12:13:44.508Z,15.10
2022-09-30T12:16:17.510Z,15.20
2022-09-30T12:18:49.904Z,15.20
2022-09-30T12:21:19.899Z,15.20
2022-09-30T12:23:55.251Z,15.20
2022-09-30T12:26:22.164Z,15.30
2022-09-30T12:29:29.970Z,15.40
2022-09-30T12:32:15.995Z,15.40
2022-09-30T12:35:08.046Z,15.40
2022-09-30T12:37:48.711Z,15.40
2022-09-30T12:40:29.263Z,15.40
2022-09-30T12:43:48.419Z,15.40
2022-09-30T12:46:15.133Z,15.40
2022-09-30T12:48:51.205Z,15.40
2022-09-30T12:51:38.861Z,15.40
2022-09-30T12:54:18.597Z,15.50
2022-09-30T12:56:48.249Z,15.50
2022-09-30T12:59:17.855Z,15.50
2022-09-30T13:01:44.865Z,15.40
2022-09-30T13:04:43.096Z,15.40
2022-09-30T13:07:18.289Z,15.40
2022-09-30T13:10:17.293Z,15.30
2022-09-30T13:12:46.788Z,15.30
2022-09-30T13:15:31.424Z,15.30
2022-09-30T13:18:21.117Z,15.30
2022-09-30T13:20:56.723Z,15.30
2022-09-30T13:23:35.822Z,15.30
2022-09-30T13:26:03.130Z,15.40
2022-09-30T13:28:38.291Z,15.40
2022-09-30T13:31:22.957Z,15.50
2022-09-30T13:34:02.136Z,15.50
2022-09-30T13:36:49.244Z,15.60
2022-09-30T13:39:34.277Z,15.60
2022-09-30T13:42:01.074Z,15.60
2022-09-30T13:44:38.150Z,15.60
2022-09-30T13:47:25.956Z,15.60
2022-09-30T13:50:10.950Z,15.60
2022-09-30T13:52:39.936Z,15.60
2022-09-30T13:55:18.411Z,15.60
2022-09-30T13:58:24.630Z,15.50
2022-09-30T14:01:14.138Z,15.50
2022-09-30T14:03:59.179Z,15.40
2022-09-30T14:06:29.879Z,15.30
2022-09-30T14:09:12.543Z,15.20
2022-09-30T14:11:54.370Z,15.20
2022-09-30T14:14:46.088Z,15.10
2022-09-30T14:17:39.783Z,15.10
2022-09-30T14:20:06.484Z,15.00
2022-09-30T14:22:36.554Z,15.00
2022-09-30T14:25:05.146Z,14.90
2022-09-30T14:27:45.626Z,14.90
2022-09-30T14:30:20.696Z,14.90
2022-09-30T14:32:58.504Z,14.80
2022-09-30T14:36:22.130Z,14.70
2022-09-30T14:38:58.840Z,14.70
2022-09-30T14:41:26.845Z,14.60
2022-09-30T14:43:58.234Z,14.50
2022-09-30T14:46:42.177Z,14.50
2022-09-30T14:49:14.417Z,14.40
2022-09-30T14:51:49.069Z,14.30
2022-09-30T14:54:29.113Z,14.30
2022-09-30T14:56:57.387Z,14.30
2022-09-30T14:59:31.282Z,14.20
2022-09-30T15:02:04.312Z,14.20
2022-09-30T15:04:34.885Z,14.10
2022-09-30T15:07:04.427Z,14.10
2022-09-30T15:09:38.501Z,14.00
2022-09-30T15:12:13.767Z,14.00
2022-09-30T15:14:59.844Z,13.90
2022-09-30T15:17:38.192Z,13.80
2022-09-30T15:20:23.797Z,13.70
2022-09-30T15:22:55.141Z,13.70
2022-09-30T15:25:22.735Z,13.70
2022-09-30T15:27:50.216Z,13.60
2022-09-30T15:30:29.266Z,13.60
2022-09-30T15:33:02.274Z,13.50
2022-09-30T15:35:30.443Z,13.50
2022-09-30T15:38:20.714Z,13.40
2022-09-30T15:40:57.228Z,13.50
2022-09-30T15:43:42.423Z,13.40
2022-09-30T15:46:33.858Z,13.40
2022-09-30T15:49:02.029Z,13.30
2022-09-30T15:51:41.485Z,13.30
2022-09-30T15:54:29.232Z,13.30
2022-09-30T15:56:56.542Z,13.20
2022-09-30T15:59:23.497Z,13.20
2022-09-30T16:01:52.536Z,13.20
2022-09-30T16:04:19.287Z,13.20
2022-09-30T16:07:07.889Z,13.10
2022-09-30T16:09:39.454Z,13.10
2022-09-30T16:12:10.300Z,13.10
2022-09-30T16:15:15.517Z,13.00
2022-09-30T16:17:49.948Z,13.00
2022-09-30T16:20:19.919Z,12.90
2022-09-30T16:22:46.881Z,12.90
2022-09-30T16:25:28.476Z,12.90
2022-09-30T16:28:12.577Z,12.80
2022-09-30T16:30:48.972Z,12.80
2022-09-30T16:33:16.635Z,12.70
2022-09-30T16:35:44.301Z,12.70
2022-09-30T16:38:16.842Z,12.70
2022-09-30T16:40:44.158Z,12.70
2022-09-30T16:43:11.771Z,12.70
2022-09-30T16:45:43.720Z,12.60
2022-09-30T16:48:18.223Z,12.60
2022-09-30T16:51:04.566Z,12.60
2022-09-30T16:53:31.530Z,12.60
2022-09-30T16:55:58.741Z,12.50
2022-09-30T16:58:25.841Z,12.50
2022-09-30T17:00:53.197Z,12.50
2022-09-30T17:03:21.663Z,12.50
2022-09-30T17:05:53.351Z,12.50
2022-09-30T17:08:24.083Z,12.50
2022-09-30T17:10:51.143Z,12.50
2022-09-30T17:13:18.741Z,12.40
2022-09-30T17:15:50.618Z,12.40
2022-09-30T17:18:17.842Z,12.40
2022-09-30T17:20:52.461Z,12.40
2022-09-30T17:23:24.286Z,12.40
2022-09-30T17:25:51.816Z,12.30
2022-09-30T17:28:18.737Z,12.30
2022-09-30T17:30:48.230Z,12.30
2022-09-30T17:33:15.847Z,12.30
2022-09-30T17:35:42.695Z,12.30
2022-09-30T17:38:11.699Z,12.20
2022-09-30T17:40:57.314Z,12.20
2022-09-30T17:43:24.712Z,12.20
2022-09-30T17:45:52.385Z,12.20
2022-09-30T17:48:19.562Z,12.20
2022-09-30T17:50:48.516Z,12.20
2022-09-30T17:53:18.134Z,12.10
2022-09-30T17:55:49.906Z,12.10
2022-09-30T17:58:17.281Z,12.10
2022-09-30T18:00:45.263Z,12.10
2022-09-30T18:03:12.295Z,12.10
2022-09-30T18:05:39.214Z,12.10
2022-09-30T18:08:06.291Z,12.10
2022-09-30T18:10:36.409Z,12.10
2022-09-30T18:13:03.338Z,12.10
2022-09-30T18:15:30.277Z,12.10
2022-09-30T18:17:57.143Z,12.10
2022-09-30T18:20:25.613Z,12.10
2022-09-30T18:22:52.831Z,12.10
2022-09-30T18:25:20.003Z,12.10
2022-09-30T18:27:53.385Z,12.10
2022-09-30T18:30:21.840Z,12.00
2022-09-30T18:32:51.097Z,12.00
2022-09-30T18:35:20.502Z,12.00
2022-09-30T18:37:51.381Z,12.00
2022-09-30T18:40:20.887Z,12.00
2022-09-30T18:42:48.718Z,12.00
2022-09-30T18:45:15.733Z,12.00
2022-09-30T18:47:44.079Z,12.00
2022-09-30T18:50:12.919Z,11.90
2022-09-30T18:52:40.710Z,11.90
2022-09-30T18:55:09.794Z,11.90
2022-09-30T18:57:36.791Z,11.90
2022-09-30T19:00:04.840Z,11.90
2022-09-30T19:02:32.387Z,11.90
2022-09-30T19:04:59.998Z,11.90
2022-09-30T19:07:27.101Z,11.90
2022-09-30T19:09:53.958Z,11.80
2022-09-30T19:12:23.103Z,11.80
2022-09-30T19:14:49.906Z,11.90
2022-09-30T19:17:16.834Z,11.80
2022-09-30T19:19:45.951Z,11.80
2022-09-30T19:22:13.679Z,11.80
2022-09-30T19:24:42.681Z,11.80
2022-09-30T19:27:11.306Z,11.80
2022-09-30T19:29:39.286Z,11.80
2022-09-30T19:32:09.721Z,11.80
2022-09-30T19:34:37.150Z,11.80
2022-09-30T19:37:04.164Z,11.80
2022-09-30T19:39:42.739Z,11.80
2022-09-30T19:42:18.557Z,11.80
2022-09-30T19:44:45.678Z,11.70
2022-09-30T19:47:12.896Z,11.70
2022-09-30T19:49:40.036Z,11.70
2022-09-30T19:52:16.734Z,11.70
2022-09-30T19:54:45.852Z,11.70
2022-09-30T19:57:13.254Z,11.70
2022-09-30T19:59:40.182Z,11.60
2022-09-30T20:02:11.287Z,11.70
2022-09-30T20:04:39.655Z,11.60
2022-09-30T20:07:06.591Z,11.60
2022-09-30T20:09:33.402Z,11.60
2022-09-30T20:12:00.707Z,11.60
2022-09-30T20:14:47.232Z,11.60
2022-09-30T20:17:14.195Z,11.60
2022-09-30T20:19:41.024Z,11.50
2022-09-30T20:22:10.083Z,11.50
2022-09-30T20:24:37.960Z,11.50
2022-09-30T20:27:05.936Z,11.40
2022-09-30T20:29:33.174Z,11.40
2022-09-30T20:32:02.306Z,11.40
2022-09-30T20:34:29.258Z,11.40
2022-09-30T20:36:56.398Z,11.40
2022-09-30T20:39:23.821Z,11.40
2022-09-30T20:41:51.188Z,11.40
2022-09-30T20:44:19.125Z,11.40
2022-09-30T20:46:46.242Z,11.40
2022-09-30T20:49:13.252Z,11.30
2022-09-30T20:51:40.256Z,11.40
2022-09-30T20:54:07.360Z,11.40
2022-09-30T20:57:02.436Z,11.40
2022-09-30T20:59:21.232Z,11.40
2022-09-30T21:01:49.367Z,11.40
2022-09-30T21:04:16.467Z,11.40
2022-09-30T21:06:43.528Z,11.40
2022-09-30T21:09:13.272Z,11.40
2022-09-30T21:11:42.385Z,11.40
2022-09-30T21:14:09.523Z,11.40
2022-09-30T21:16:36.646Z,11.40
2022-09-30T21:19:03.986Z,11.40
2022-09-30T21:21:31.350Z,11.40
2022-09-30T21:23:59.901Z,11.40
2022-09-30T21:26:28.019Z,11.40
2022-09-30T21:28:55.105Z,11.40
2022-09-30T21:31:27.489Z,11.40
2022-09-30T21:33:56.756Z,11.40
2022-09-30T21:36:24.819Z,11.40
2022-09-30T21:38:52.518Z,11.30
2022-09-30T21:41:20.048Z,11.30
2022-09-30T21:43:47.212Z,11.30
2022-09-30T21:46:15.830Z,11.30
2022-09-30T21:48:43.229Z,11.30
2022-09-30T21:51:13.496Z,11.30
2022-09-30T21:53:41.123Z,11.30
2022-09-30T21:56:11.579Z,11.30
2022-09-30T21:58:39.779Z,11.30
2022-09-30T22:01:07.677Z,11.30
2022-09-30T22:03:38.443Z,11.30
2022-09-30T22:06:10.201Z,11.30
2022-09-30T22:08:41.575Z,11.30
2022-09-30T22:11:11.247Z,11.30
2022-09-30T22:13:41.130Z,11.20
2022-09-30T22:16:08.500Z,11.20
2022-09-30T22:18:35.825Z,11.10
2022-09-30T22:21:06.241Z,11.10
2022-09-30T22:23:33.194Z,11.10
2022-09-30T22:26:27.108Z,11.10
2022-09-30T22:29:00.590Z,11.10
2022-09-30T22:31:31.406Z,11.10
2022-09-30T22:34:20.033Z,11.10
2022-09-30T22:37:05.999Z,11.10
2022-09-30T22:39:33.538Z,11.10
2022-09-30T22:42:01.227Z,11.10
2022-09-30T22:44:32.009Z,11.10
2022-09-30T22:47:02.035Z,11.00
2022-09-30T22:49:33.120Z,11.00
2022-09-30T22:52:01.870Z,11.00
2022-09-30T22:54:29.266Z,11.00
2022-09-30T22:56:58.425Z,11.00
2022-09-30T22:59:26.841Z,11.00
2022-09-30T23:01:54.609Z,11.00
2022-09-30T23:04:22.428Z,11.00
2022-09-30T23:06:51.115Z,10.90
2022-09-30T23:09:18.946Z,11.00
2022-09-30T23:11:46.171Z,10.90
2022-09-30T23:14:13.691Z,10.90
2022-09-30T23:16:41.213Z,10.90
2022-09-30T23:19:08.398Z,10.90
2022-09-30T23:21:35.828Z,10.90
2022-09-30T23:24:03.690Z,10.90
2022-09-30T23:26:31.255Z,10.90
2022-09-30T23:29:04.304Z,10.90
2022-09-30T23:31:32.136Z,10.90
2022-09-30T23:34:01.420Z,10.90
2022-09-30T23:36:33.378Z,10.90
2022-09-30T23:39:04.451Z,10.90
2022-09-30T23:41:32.585Z,10.90
2022-09-30T23:44:00.029Z,10.90
2022-09-30T23:46:27.307Z,10.90
2022-09-30T23:48:54.127Z,10.90
2022-09-30T23:51:20.986Z,10.90
2022-09-30T23:53:47.865Z,10.90
2022-09-30T23:56:18.945Z,10.90
2022-09-30T23:58:46.768Z,10.90
